createdAt,value
2022-11-26T00:00:52.132Z,9.43
2022-11-26T00:03:19.946Z,9.47
2022-11-26T00:05:49.823Z,9.38
2022-11-26T00:08:36.635Z,9.34
2022-11-26T00:11:03.400Z,9.41
2022-11-26T00:13:31.296Z,9.49
2022-11-26T00:15:57.951Z,9.12
2022-11-26T00:18:26.560Z,9.09
2022-11-26T00:20:56.086Z,8.96
2022-11-26T00:23:27.454Z,8.85
2022-11-26T00:25:59.625Z,8.82
2022-11-26T00:28:26.122Z,8.87
2022-11-26T00:30:55.980Z,9.10
2022-11-26T00:33:23.115Z,9.14
2022-11-26T00:35:56.027Z,9.37
2022-11-26T00:38:22.915Z,9.33
2022-11-26T00:40:49.488Z,9.41
2022-11-26T00:43:17.394Z,9.20
2022-11-26T00:45:45.074Z,9.36
2022-11-26T00:48:11.673Z,9.41
2022-11-26T00:50:40.875Z,9.45
2022-11-26T00:53:08.276Z,9.39
2022-11-26T00:55:40.144Z,9.47
2022-11-26T00:58:07.577Z,9.47
2022-11-26T01:00:35.060Z,9.38
2022-11-26T01:03:02.467Z,9.50
2022-11-26T01:05:30.686Z,9.42
2022-11-26T01:08:02.884Z,9.25
2022-11-26T01:10:30.242Z,9.46
2022-11-26T01:12:56.986Z,9.40
2022-11-26T01:15:24.980Z,9.34
2022-11-26T01:17:52.531Z,9.29
2022-11-26T01:20:28.578Z,9.36
2022-11-26T01:22:57.069Z,9.44
2022-11-26T01:25:24.541Z,9.31
2022-11-26T01:27:51.980Z,9.38
2022-11-26T01:30:27.224Z,9.48
2022-11-26T01:32:53.745Z,9.39
2022-11-26T01:35:21.434Z,9.41
2022-11-26T01:37:48.670Z,9.39
2022-11-26T01:40:43.046Z,9.44
2022-11-26T01:43:37.457Z,9.53
2022-11-26T01:46:05.507Z,9.65
2022-11-26T01:48:33.671Z,9.49
2022-11-26T01:51:05.660Z,9.69
2022-11-26T01:53:44.353Z,9.59
2022-11-26T01:56:28.769Z,9.69
2022-11-26T01:59:07.817Z,9.68
2022-11-26T02:01:34.547Z,9.66
2022-11-26T02:04:19.354Z,9.58
2022-11-26T02:06:48.839Z,9.49
2022-11-26T02:09:16.112Z,9.29
2022-11-26T02:11:43.263Z,9.66
2022-11-26T02:14:31.349Z,9.57
2022-11-26T02:17:10.462Z,9.71
2022-11-26T02:19:52.319Z,9.69
2022-11-26T02:22:41.276Z,9.68
2022-11-26T02:25:17.758Z,9.68
2022-11-26T02:28:26.395Z,9.70
2022-11-26T02:30:56.938Z,9.67
2022-11-26T02:33:52.308Z,9.72
2022-11-26T02:36:33.648Z,9.66
2022-11-26T02:39:18.948Z,9.73
2022-11-26T02:41:51.697Z,9.73
2022-11-26T02:44:22.848Z,9.73
2022-11-26T02:46:53.431Z,9.65
2022-11-26T02:49:21.442Z,9.65
2022-11-26T02:51:53.669Z,9.65
2022-11-26T02:54:21.271Z,9.64
2022-11-26T02:56:49.452Z,9.58
2022-11-26T02:59:16.751Z,9.77
2022-11-26T03:01:47.535Z,9.79
2022-11-26T03:04:20.520Z,9.64
2022-11-26T03:06:47.442Z,9.68
2022-11-26T03:09:17.606Z,9.78
2022-11-26T03:11:44.642Z,9.77
2022-11-26T03:14:11.285Z,9.76
2022-11-26T03:16:38.007Z,9.69
2022-11-26T03:19:05.917Z,9.72
2022-11-26T03:21:33.348Z,9.66
2022-11-26T03:23:59.942Z,9.43
2022-11-26T03:26:26.673Z,9.50
2022-11-26T03:28:53.284Z,9.44
2022-11-26T03:31:20.138Z,9.54
2022-11-26T03:33:46.763Z,9.60
2022-11-26T03:36:13.274Z,9.47
2022-11-26T03:38:40.827Z,9.44
2022-11-26T03:41:07.950Z,9.41
2022-11-26T03:43:34.631Z,9.43
2022-11-26T03:46:01.256Z,9.38
2022-11-26T03:48:27.937Z,9.44
2022-11-26T03:50:54.572Z,9.30
2022-11-26T03:53:21.169Z,9.38
2022-11-26T03:55:47.927Z,9.37
2022-11-26T03:58:16.544Z,9.22
2022-11-26T04:00:43.300Z,8.97
2022-11-26T04:03:09.880Z,8.83
2022-11-26T04:05:37.441Z,8.90
2022-11-26T04:08:04.047Z,8.53
2022-11-26T04:10:30.700Z,8.48
2022-11-26T04:12:57.398Z,8.48
2022-11-26T04:15:24.021Z,8.30
2022-11-26T04:17:50.551Z,8.36
2022-11-26T04:20:17.694Z,8.38
2022-11-26T04:22:44.262Z,8.40
2022-11-26T04:25:10.948Z,8.52
2022-11-26T04:27:37.745Z,8.18
2022-11-26T04:30:06.253Z,8.07
2022-11-26T04:32:33.907Z,7.94
2022-11-26T04:35:00.437Z,7.82
2022-11-26T04:37:29.452Z,7.74
2022-11-26T04:39:57.033Z,7.78
2022-11-26T04:42:24.634Z,7.84
2022-11-26T04:44:53.006Z,7.70
2022-11-26T04:47:19.542Z,7.58
2022-11-26T04:49:46.120Z,7.54
2022-11-26T04:52:12.613Z,7.52
2022-11-26T04:54:39.370Z,7.47
2022-11-26T04:57:06.220Z,7.54
2022-11-26T04:59:33.820Z,7.60
2022-11-26T05:02:00.600Z,7.64
2022-11-26T05:04:28.682Z,7.59
2022-11-26T05:06:56.502Z,7.53
2022-11-26T05:09:23.152Z,7.55
2022-11-26T05:11:49.710Z,7.54
2022-11-26T05:14:17.332Z,7.55
2022-11-26T05:16:44.908Z,7.72
2022-11-26T05:19:11.520Z,7.95
2022-11-26T05:21:39.033Z,7.78
2022-11-26T05:24:05.930Z,7.79
2022-11-26T05:26:32.605Z,7.90
2022-11-26T05:29:00.188Z,7.87
2022-11-26T05:31:29.169Z,7.96
2022-11-26T05:33:56.866Z,7.98
2022-11-26T05:36:24.419Z,8.04
2022-11-26T05:38:50.998Z,8.26
2022-11-26T05:41:20.783Z,8.07
2022-11-26T05:43:50.484Z,8.12
2022-11-26T05:46:18.140Z,8.31
2022-11-26T05:48:45.872Z,8.43
2022-11-26T05:51:12.395Z,8.22
2022-11-26T05:53:39.971Z,8.20
2022-11-26T05:56:06.961Z,8.14
2022-11-26T05:58:33.837Z,7.97
2022-11-26T06:01:00.473Z,8.12
2022-11-26T06:03:27.296Z,7.91
2022-11-26T06:05:54.511Z,8.00
2022-11-26T06:08:21.043Z,7.92
2022-11-26T06:10:48.655Z,7.79
2022-11-26T06:13:16.925Z,8.09
2022-11-26T06:15:45.382Z,7.96
2022-11-26T06:18:12.967Z,8.00
2022-11-26T06:20:40.565Z,8.02
2022-11-26T06:23:07.368Z,8.15
2022-11-26T06:25:40.360Z,7.93
2022-11-26T06:28:09.517Z,7.91
2022-11-26T06:30:36.101Z,7.76
2022-11-26T06:33:04.415Z,7.64
2022-11-26T06:35:34.299Z,7.54
2022-11-26T06:38:00.914Z,7.44
2022-11-26T06:40:27.815Z,7.38
2022-11-26T06:42:55.435Z,7.36
2022-11-26T06:45:23.376Z,7.46
2022-11-26T06:47:53.429Z,7.37
2022-11-26T06:50:22.379Z,7.43
2022-11-26T06:52:53.110Z,7.47
2022-11-26T06:55:20.105Z,7.36
2022-11-26T06:57:51.809Z,7.69
2022-11-26T07:00:18.796Z,7.81
2022-11-26T07:02:45.433Z,7.90
2022-11-26T07:05:12.989Z,7.80
2022-11-26T07:07:40.108Z,7.97
2022-11-26T07:10:07.462Z,8.16
2022-11-26T07:12:35.992Z,8.20
2022-11-26T07:15:02.603Z,8.27
2022-11-26T07:17:29.270Z,8.25
2022-11-26T07:19:55.931Z,8.33
2022-11-26T07:22:22.515Z,8.33
2022-11-26T07:24:49.122Z,8.30
2022-11-26T07:27:31.025Z,8.29
2022-11-26T07:29:58.538Z,8.44
2022-11-26T07:32:25.080Z,8.51
2022-11-26T07:34:55.600Z,8.48
2022-11-26T07:37:22.163Z,8.63
2022-11-26T07:39:49.482Z,8.55
2022-11-26T07:42:16.027Z,8.57
2022-11-26T07:44:42.566Z,8.72
2022-11-26T07:47:09.111Z,8.74
2022-11-26T07:49:37.248Z,8.78
2022-11-26T07:52:03.882Z,8.88
2022-11-26T07:54:30.493Z,8.97
2022-11-26T07:56:57.071Z,9.03
2022-11-26T07:59:23.681Z,9.06
2022-11-26T08:01:50.437Z,9.20
2022-11-26T08:04:18.972Z,9.23
2022-11-26T08:06:48.725Z,9.29
2022-11-26T08:09:23.439Z,9.31
2022-11-26T08:11:50.423Z,9.39
2022-11-26T08:14:17.178Z,9.41
2022-11-26T08:16:45.403Z,9.57
2022-11-26T08:19:13.481Z,9.50
2022-11-26T08:21:40.337Z,9.53
2022-11-26T08:24:07.970Z,9.61
2022-11-26T08:26:42.420Z,9.60
2022-11-26T08:29:19.547Z,9.63
2022-11-26T08:31:49.098Z,9.72
2022-11-26T08:34:17.703Z,9.61
2022-11-26T08:36:45.358Z,9.68
2022-11-26T08:39:17.753Z,9.72
2022-11-26T08:41:52.489Z,9.80
2022-11-26T08:44:19.760Z,9.84
2022-11-26T08:46:46.446Z,9.81
2022-11-26T08:49:14.902Z,9.81
2022-11-26T08:51:42.499Z,9.74
2022-11-26T08:54:13.694Z,10.04
2022-11-26T08:56:43.644Z,9.98
2022-11-26T08:59:10.322Z,10.07
2022-11-26T09:01:44.368Z,9.89
2022-11-26T09:04:14.094Z,9.91
2022-11-26T09:06:52.205Z,9.87
2022-11-26T09:09:18.852Z,9.72
2022-11-26T09:11:49.495Z,9.64
2022-11-26T09:14:22.721Z,9.71
2022-11-26T09:16:49.468Z,9.88
2022-11-26T09:19:16.990Z,9.81
2022-11-26T09:21:44.698Z,9.86
2022-11-26T09:24:12.054Z,9.79
2022-11-26T09:26:43.632Z,10.09
2022-11-26T09:29:13.844Z,10.10
2022-11-26T09:32:00.786Z,10.19
2022-11-26T09:34:28.895Z,10.22
2022-11-26T09:37:03.313Z,10.24
2022-11-26T09:39:44.642Z,10.35
2022-11-26T09:42:48.952Z,10.23
2022-11-26T09:45:28.364Z,10.18
2022-11-26T09:47:55.661Z,10.12
2022-11-26T09:50:27.613Z,10.14
2022-11-26T09:53:05.349Z,10.30
2022-11-26T09:55:34.414Z,10.09
2022-11-26T09:58:07.011Z,10.32
2022-11-26T10:00:39.206Z,10.32
2022-11-26T10:03:13.153Z,10.36
2022-11-26T10:05:43.506Z,10.14
2022-11-26T10:08:28.390Z,10.37
2022-11-26T10:11:24.283Z,10.63
2022-11-26T10:14:09.663Z,10.61
2022-11-26T10:16:47.256Z,10.76
2022-11-26T10:19:20.826Z,10.66
2022-11-26T10:22:00.049Z,10.77
2022-11-26T10:24:31.420Z,10.71
2022-11-26T10:27:03.912Z,10.88
2022-11-26T10:29:43.132Z,11.04
2022-11-26T10:32:26.330Z,11.12
2022-11-26T10:34:55.204Z,10.98
2022-11-26T10:37:23.680Z,11.03
2022-11-26T10:40:01.947Z,11.44
2022-11-26T10:42:40.495Z,11.41
2022-11-26T10:45:20.668Z,11.51
2022-11-26T10:47:47.422Z,11.50
2022-11-26T10:50:46.754Z,11.45
2022-11-26T10:53:22.326Z,11.43
2022-11-26T10:55:49.429Z,11.51
2022-11-26T10:58:42.344Z,11.74
2022-11-26T11:01:09.885Z,11.66
2022-11-26T11:06:36.012Z,11.57
2022-11-26T11:09:23.188Z,11.79
2022-11-26T11:12:13.170Z,11.79
2022-11-26T11:14:42.982Z,11.70
2022-11-26T11:17:31.695Z,11.85
2022-11-26T11:19:59.897Z,11.89
2022-11-26T11:22:26.670Z,11.75
2022-11-26T11:24:54.386Z,11.83
2022-11-26T11:27:47.076Z,11.67
2022-11-26T11:30:27.773Z,11.82
2022-11-26T11:33:09.242Z,11.95
2022-11-26T11:35:36.034Z,11.80
2022-11-26T11:38:02.535Z,12.23
2022-11-26T11:40:30.526Z,12.27
2022-11-26T11:43:02.537Z,12.44
2022-11-26T11:45:56.876Z,12.61
2022-11-26T11:48:39.202Z,12.74
2022-11-26T11:51:23.964Z,12.41
2022-11-26T11:54:04.796Z,12.40
2022-11-26T11:56:39.113Z,12.49
2022-11-26T11:59:19.314Z,12.55
2022-11-26T12:02:18.667Z,12.64
2022-11-26T12:05:12.160Z,12.51
2022-11-26T12:08:06.798Z,12.27
2022-11-26T12:11:16.651Z,12.71
2022-11-26T12:13:47.704Z,12.66
2022-11-26T12:16:15.186Z,12.62
2022-11-26T12:18:56.364Z,12.65
2022-11-26T12:21:35.106Z,12.57
2022-11-26T12:24:22.323Z,12.86
2022-11-26T12:26:51.637Z,12.44
2022-11-26T12:29:50.140Z,12.48
2022-11-26T12:32:21.715Z,12.45
2022-11-26T12:34:52.600Z,12.38
2022-11-26T12:37:35.580Z,12.52
2022-11-26T12:40:19.624Z,12.65
2022-11-26T12:43:01.893Z,12.92
2022-11-26T12:45:51.652Z,13.03
2022-11-26T12:48:36.717Z,12.94
2022-11-26T12:51:20.345Z,13.29
2022-11-26T12:54:17.887Z,13.53
2022-11-26T12:57:14.374Z,13.31
2022-11-26T12:59:51.921Z,13.04
2022-11-26T13:02:24.345Z,12.92
2022-11-26T13:04:52.123Z,12.86
2022-11-26T13:07:23.086Z,12.40
2022-11-26T13:10:10.026Z,12.56
2022-11-26T13:12:46.587Z,12.56
2022-11-26T13:15:12.988Z,12.50
2022-11-26T13:17:47.623Z,12.47
2022-11-26T13:20:35.918Z,12.38
2022-11-26T13:23:12.061Z,12.58
2022-11-26T13:25:51.022Z,12.30
2022-11-26T13:28:32.702Z,12.36
2022-11-26T13:31:11.566Z,12.13
2022-11-26T13:33:58.332Z,12.17
2022-11-26T13:36:49.923Z,12.23
2022-11-26T13:39:29.894Z,12.17
2022-11-26T13:42:13.779Z,12.09
2022-11-26T13:44:40.495Z,11.97
2022-11-26T13:47:13.143Z,11.83
2022-11-26T13:49:55.074Z,11.50
2022-11-26T13:52:36.519Z,11.47
2022-11-26T13:55:09.347Z,11.53
2022-11-26T13:57:43.966Z,11.18
2022-11-26T14:00:11.184Z,10.98
2022-11-26T14:02:42.580Z,11.10
2022-11-26T14:05:14.961Z,11.07
2022-11-26T14:07:42.766Z,11.09
2022-11-26T14:10:34.824Z,10.97
2022-11-26T14:13:04.707Z,10.93
2022-11-26T14:15:43.416Z,10.85
2022-11-26T14:18:17.348Z,10.94
2022-11-26T14:21:02.928Z,10.83
2022-11-26T14:23:56.396Z,10.78
2022-11-26T14:26:26.377Z,10.69
2022-11-26T14:29:11.298Z,10.62
2022-11-26T14:31:40.640Z,10.79
2022-11-26T14:34:38.599Z,10.69
2022-11-26T14:37:12.944Z,10.66
2022-11-26T14:39:39.786Z,10.53
2022-11-26T14:42:06.777Z,10.59
2022-11-26T14:44:33.551Z,10.47
2022-11-26T14:47:07.238Z,10.65
2022-11-26T14:49:39.617Z,10.50
2022-11-26T14:52:16.838Z,10.48
2022-11-26T14:54:46.562Z,10.42
2022-11-26T14:57:23.882Z,10.35
2022-11-26T15:00:04.348Z,10.23
2022-11-26T15:02:31.718Z,10.17
2022-11-26T15:05:04.610Z,10.10
2022-11-26T15:07:31.611Z,10.00
2022-11-26T15:10:07.246Z,9.87
2022-11-26T15:12:35.433Z,9.73
2022-11-26T15:15:02.778Z,9.73
2022-11-26T15:17:30.610Z,9.77
2022-11-26T15:19:59.774Z,9.60
2022-11-26T15:22:39.093Z,9.50
2022-11-26T15:25:14.641Z,9.43
2022-11-26T15:27:52.552Z,9.40
2022-11-26T15:30:20.223Z,9.44
2022-11-26T15:32:47.128Z,9.30
2022-11-26T15:35:15.909Z,9.29
2022-11-26T15:37:42.634Z,9.13
2022-11-26T15:40:24.636Z,9.05
2022-11-26T15:42:57.855Z,9.02
2022-11-26T15:45:33.623Z,8.95
2022-11-26T15:48:00.703Z,8.97
2022-11-26T15:50:33.415Z,8.84
2022-11-26T15:53:08.249Z,8.73
2022-11-26T15:55:36.580Z,8.74
2022-11-26T15:58:09.000Z,8.68
2022-11-26T16:00:40.488Z,8.59
2022-11-26T16:03:34.080Z,8.52
2022-11-26T16:06:02.663Z,8.50
2022-11-26T16:08:30.711Z,8.44
2022-11-26T16:11:08.233Z,8.48
2022-11-26T16:13:35.648Z,8.55
2022-11-26T16:16:37.976Z,8.39
2022-11-26T16:19:04.551Z,8.36
2022-11-26T16:21:33.408Z,8.38
2022-11-26T16:24:03.062Z,8.26
2022-11-26T16:26:29.692Z,8.13
2022-11-26T16:28:56.224Z,8.10
2022-11-26T16:31:23.122Z,8.13
2022-11-26T16:33:49.701Z,8.05
2022-11-26T16:36:19.504Z,8.02
2022-11-26T16:38:46.557Z,8.02
2022-11-26T16:41:14.273Z,7.96
2022-11-26T16:43:41.836Z,7.95
2022-11-26T16:46:17.795Z,8.00
2022-11-26T16:48:45.923Z,8.10
2022-11-26T16:51:12.432Z,8.08
2022-11-26T16:53:39.277Z,8.02
2022-11-26T16:56:07.387Z,8.15
2022-11-26T16:58:37.595Z,8.03
2022-11-26T17:01:04.594Z,7.97
2022-11-26T17:03:33.355Z,7.94
2022-11-26T17:06:38.688Z,7.85
2022-11-26T17:09:05.317Z,7.81
2022-11-26T17:11:31.853Z,7.79
2022-11-26T17:13:58.813Z,7.79
2022-11-26T17:16:26.121Z,7.76
2022-11-26T17:18:53.077Z,7.79
2022-11-26T17:21:19.909Z,7.71
2022-11-26T17:23:46.655Z,7.90
2022-11-26T17:26:19.764Z,7.69
2022-11-26T17:28:47.061Z,7.64
2022-11-26T17:31:14.011Z,7.71
2022-11-26T17:33:40.613Z,7.75
2022-11-26T17:36:15.642Z,7.69
2022-11-26T17:38:42.335Z,7.65
2022-11-26T17:41:11.169Z,7.53
2022-11-26T17:43:38.149Z,7.45
2022-11-26T17:46:04.826Z,7.52
2022-11-26T17:48:31.404Z,7.49
2022-11-26T17:50:58.028Z,7.42
2022-11-26T17:53:24.561Z,7.40
2022-11-26T17:55:51.377Z,7.38
2022-11-26T17:58:17.940Z,7.27
2022-11-26T18:00:44.544Z,7.25
2022-11-26T18:03:11.100Z,7.31
2022-11-26T18:05:41.805Z,7.29
2022-11-26T18:08:08.917Z,7.25
2022-11-26T18:10:35.445Z,7.26
2022-11-26T18:13:01.961Z,7.32
2022-11-26T18:15:28.489Z,7.29
2022-11-26T18:17:55.318Z,7.24
2022-11-26T18:20:25.860Z,7.13
2022-11-26T18:22:55.046Z,7.18
2022-11-26T18:25:21.746Z,7.11
2022-11-26T18:27:48.532Z,7.23
2022-11-26T18:30:15.403Z,7.24
2022-11-26T18:32:42.265Z,7.09
2022-11-26T18:35:13.194Z,7.07
2022-11-26T18:37:40.492Z,7.21
2022-11-26T18:40:09.047Z,7.22
2022-11-26T18:42:37.928Z,6.98
2022-11-26T18:45:07.241Z,6.98
2022-11-26T18:47:33.743Z,6.95
2022-11-26T18:50:00.325Z,7.04
2022-11-26T18:52:26.924Z,7.02
2022-11-26T18:54:53.679Z,7.00
2022-11-26T18:57:20.227Z,6.97
2022-11-26T18:59:46.955Z,6.93
2022-11-26T19:02:13.769Z,6.84
2022-11-26T19:04:40.505Z,6.88
2022-11-26T19:07:07.209Z,6.83
2022-11-26T19:09:33.721Z,6.77
2022-11-26T19:12:00.420Z,6.75
2022-11-26T19:14:27.137Z,6.85
2022-11-26T19:16:53.843Z,6.84
2022-11-26T19:19:21.992Z,6.79
2022-11-26T19:21:50.226Z,6.72
2022-11-26T19:24:16.984Z,6.74
2022-11-26T19:26:43.616Z,6.77
2022-11-26T19:29:12.187Z,6.73
2022-11-26T19:31:39.769Z,6.67
2022-11-26T19:34:09.968Z,6.70
2022-11-26T19:36:37.562Z,6.56
2022-11-26T19:39:05.706Z,6.59
2022-11-26T19:41:32.216Z,6.83
2022-11-26T19:44:00.495Z,6.79
2022-11-26T19:46:27.287Z,6.72
2022-11-26T19:48:54.233Z,6.67
2022-11-26T19:51:21.890Z,6.55
2022-11-26T19:53:50.762Z,6.49
2022-11-26T19:56:36.747Z,6.46
2022-11-26T19:59:03.919Z,6.43
2022-11-26T20:01:32.261Z,6.67
2022-11-26T20:04:00.669Z,6.41
2022-11-26T20:06:28.379Z,6.44
2022-11-26T20:08:55.584Z,6.48
2022-11-26T20:11:23.044Z,6.34
2022-11-26T20:13:50.318Z,6.41
2022-11-26T20:16:23.433Z,6.53
2022-11-26T20:18:50.359Z,6.40
2022-11-26T20:21:21.488Z,6.37
2022-11-26T20:23:49.359Z,6.39
2022-11-26T20:26:37.643Z,6.32
2022-11-26T20:29:09.916Z,6.20
2022-11-26T20:31:45.189Z,6.18
2022-11-26T20:34:19.263Z,6.36
2022-11-26T20:36:46.025Z,6.32
2022-11-26T20:39:14.898Z,6.44
2022-11-26T20:41:41.959Z,6.34
2022-11-26T20:44:09.169Z,6.31
2022-11-26T20:46:36.446Z,6.25
2022-11-26T20:49:04.250Z,6.35
2022-11-26T20:51:30.845Z,6.21
2022-11-26T20:54:01.597Z,6.10
2022-11-26T20:56:28.743Z,6.11
2022-11-26T20:58:55.477Z,6.31
2022-11-26T21:01:24.452Z,6.41
2022-11-26T21:03:51.636Z,6.38
2022-11-26T21:06:22.390Z,6.10
2022-11-26T21:08:54.051Z,5.96
2022-11-26T21:11:20.587Z,5.86
2022-11-26T21:13:47.321Z,6.07
2022-11-26T21:16:16.484Z,5.99
2022-11-26T21:18:43.764Z,6.09
2022-11-26T21:21:12.332Z,6.19
2022-11-26T21:23:39.697Z,6.02
2022-11-26T21:26:08.353Z,5.99
2022-11-26T21:28:35.393Z,5.94
2022-11-26T21:31:13.707Z,5.58
2022-11-26T21:33:53.030Z,5.41
2022-11-26T21:36:21.090Z,5.44
2022-11-26T21:38:49.104Z,5.58
2022-11-26T21:41:17.016Z,5.42
2022-11-26T21:43:44.512Z,5.45
2022-11-26T21:46:24.657Z,5.28
2022-11-26T21:48:55.843Z,5.30
2022-11-26T21:51:25.704Z,5.31
2022-11-26T21:53:54.513Z,5.19
2022-11-26T21:56:23.144Z,5.02
2022-11-26T21:58:49.995Z,5.03
2022-11-26T22:01:22.191Z,4.98
2022-11-26T22:03:51.810Z,5.11
2022-11-26T22:06:19.602Z,5.24
2022-11-26T22:08:49.875Z,5.18
2022-11-26T22:11:18.887Z,4.99
2022-11-26T22:13:45.950Z,5.18
2022-11-26T22:16:14.285Z,5.06
2022-11-26T22:18:45.282Z,5.07
2022-11-26T22:21:15.352Z,5.12
2022-11-26T22:23:41.984Z,5.40
2022-11-26T22:26:09.036Z,5.33
2022-11-26T22:28:35.672Z,5.25
2022-11-26T22:31:09.557Z,5.32
2022-11-26T22:33:36.720Z,4.79
2022-11-26T22:36:04.305Z,4.96
2022-11-26T22:38:32.150Z,4.96
2022-11-26T22:41:07.519Z,4.90
2022-11-26T22:43:34.298Z,4.89
2022-11-26T22:46:12.897Z,4.89
2022-11-26T22:48:39.860Z,4.99
2022-11-26T22:51:06.754Z,4.72
2022-11-26T22:53:33.509Z,4.66
2022-11-26T22:56:02.032Z,4.78
2022-11-26T22:58:29.557Z,4.87
2022-11-26T23:01:08.954Z,4.95
2022-11-26T23:03:36.940Z,4.95
2022-11-26T23:06:09.189Z,4.77
2022-11-26T23:08:37.232Z,4.83
2022-11-26T23:11:27.274Z,4.81
2022-11-26T23:13:56.143Z,4.70
2022-11-26T23:16:25.352Z,4.59
2022-11-26T23:18:54.542Z,4.46
2022-11-26T23:21:27.231Z,4.46
2022-11-26T23:23:54.322Z,4.61
2022-11-26T23:26:27.838Z,4.67
2022-11-26T23:28:59.470Z,4.57
2022-11-26T23:31:31.919Z,4.24
2022-11-26T23:33:58.809Z,4.05
2022-11-26T23:36:26.713Z,3.30
2022-11-26T23:38:53.754Z,3.66
2022-11-26T23:41:21.720Z,3.15
2022-11-26T23:43:48.364Z,2.81
2022-11-26T23:46:16.254Z,2.78
2022-11-26T23:48:43.692Z,2.92
2022-11-26T23:51:14.029Z,3.40
2022-11-26T23:53:42.167Z,3.60
2022-11-26T23:56:12.649Z,3.66
2022-11-26T23:58:39.314Z,3.73
